Terminal Aerodrome Forecast
Issued by NWS

Home | Current Version | Previous Version | Text Only | Print | Product List | Glossary On
Versions: 1 2 3 4 5 6 7 8 9 10 11 12 13 14 15 16 17 18
000
FTUS43 KDVN 200520
TAFBRL
TAF
KBRL 200520Z 2006/2106 05007KT P6SM OVC130
     FM200900 06006KT P6SM OVC100
     FM201300 07007KT P6SM VCSH OVC080
     FM201500 07007KT 6SM -RA BR SCT020 OVC035
     FM202100 04007KT P6SM VCSH OVC035
     FM210000 01004KT P6SM SCT035 OVC080
     FM210300 33003KT P6SM SCT080 OVC120=

USA.gov is the U.S. government's official web portal to all federal, state and local government web resources and services.